Logansport, Louisiana
Current Conditions -  °F | °C
As of 12:56 PM on Saturday 25 Oct 2014 (Local Time) from KSHV Reporting Station
Clear Clear  
Wind Chill: 80°   Ceiling: Unl
Heat Index: 81°   Visibility: 10mi
Dew Point: 60°   Wind: 7mph
Humidity: 50%   Direction: 220°SW
Pressure: 30.13"   Gusts: NA
Location:  31.98°N, 94°W
Report Text: KSHV 251756Z 22006KT 10SM CLR 27/16 A3013 RMK AO2 SLP202 T02670156 10272 20117 58012
Loading
Personal Weather Stations






























Interactive Weather Map
Tropical Storm Tracking
New forecast layout! Learn more

10-Day Weather Forecast

Advertisements
Track Severe Weather on mobile